createdAt,value
2019-02-22T00:02:12.957Z,89.00
2019-02-22T00:04:41.099Z,89.00
2019-02-22T00:07:09.274Z,88.30
2019-02-22T00:09:37.468Z,88.70
2019-02-22T00:12:05.943Z,88.60
2019-02-22T00:14:34.127Z,88.50
2019-02-22T00:17:02.658Z,88.40
2019-02-22T00:19:31.143Z,88.30
2019-02-22T00:21:59.659Z,88.40
2019-02-22T00:24:28.214Z,88.30
2019-02-22T00:26:56.406Z,88.10
2019-02-22T00:29:44.241Z,88.20
2019-02-22T00:32:12.411Z,88.80
2019-02-22T00:34:40.607Z,88.20
2019-02-22T00:37:10.061Z,88.50
2019-02-22T00:39:38.556Z,88.40
2019-02-22T00:42:08.702Z,88.40
2019-02-22T00:44:37.141Z,88.10
2019-02-22T00:47:05.329Z,87.90
2019-02-22T00:49:33.892Z,87.50
2019-02-22T00:52:02.102Z,87.40
2019-02-22T00:54:49.653Z,87.40
2019-02-22T00:57:18.110Z,87.40
2019-02-22T00:59:46.538Z,87.20
2019-02-22T01:02:15.490Z,87.10
2019-02-22T01:04:43.652Z,86.90
2019-02-22T01:07:11.838Z,86.70
2019-02-22T01:09:39.995Z,86.60
2019-02-22T01:12:08.183Z,86.40
2019-02-22T01:14:36.343Z,86.30
2019-02-22T01:17:04.950Z,86.40
2019-02-22T01:19:34.170Z,86.50
2019-02-22T01:22:02.297Z,86.60
2019-02-22T01:24:30.847Z,86.50
2019-02-22T01:26:59.655Z,86.80
2019-02-22T01:29:27.862Z,86.90
2019-02-22T01:31:56.033Z,86.90
2019-02-22T01:34:24.462Z,86.90
2019-02-22T01:36:53.030Z,86.90
2019-02-22T01:39:21.570Z,87.00
2019-02-22T01:41:50.987Z,87.00
2019-02-22T01:44:22.961Z,87.20
2019-02-22T01:46:51.581Z,87.10
2019-02-22T01:49:20.349Z,87.40
2019-02-22T01:51:49.521Z,87.60
2019-02-22T01:54:22.241Z,87.50
2019-02-22T01:56:50.471Z,87.40
2019-02-22T01:59:18.622Z,87.40
2019-02-22T02:01:46.806Z,87.20
2019-02-22T02:04:15.293Z,87.30
2019-02-22T02:06:43.501Z,87.20
2019-02-22T02:09:11.630Z,87.40
2019-02-22T02:11:40.177Z,87.10
2019-02-22T02:14:08.683Z,87.30
2019-02-22T02:16:36.856Z,87.20
2019-02-22T02:19:05.035Z,87.20
2019-02-22T02:21:33.212Z,87.20
2019-02-22T02:24:01.762Z,87.30
2019-02-22T02:26:30.201Z,87.20
2019-02-22T02:28:58.355Z,87.30
2019-02-22T02:31:26.523Z,87.40
2019-02-22T02:33:54.940Z,87.40
2019-02-22T02:36:23.985Z,87.30
2019-02-22T02:38:52.168Z,87.30
2019-02-22T02:41:20.331Z,87.10
2019-02-22T02:43:48.533Z,87.00
2019-02-22T02:46:16.676Z,87.20
2019-02-22T02:48:46.174Z,88.40
2019-02-22T02:51:14.366Z,89.60
2019-02-22T02:53:42.545Z,90.10
2019-02-22T02:56:10.892Z,90.10
2019-02-22T02:58:39.110Z,90.20
2019-02-22T03:01:07.253Z,90.20
2019-02-22T03:03:38.578Z,90.30
2019-02-22T03:06:23.238Z,90.40
2019-02-22T03:08:51.503Z,90.40
2019-02-22T03:11:21.427Z,90.40
2019-02-22T03:13:49.601Z,90.40
2019-02-22T03:16:18.472Z,90.40
2019-02-22T03:18:46.699Z,90.40
2019-02-22T03:21:15.899Z,90.30
2019-02-22T03:23:45.099Z,90.30
2019-02-22T03:26:13.270Z,90.20
2019-02-22T03:28:41.450Z,90.10
2019-02-22T03:31:09.637Z,90.00
2019-02-22T03:33:38.405Z,90.00
2019-02-22T03:36:07.605Z,90.00
2019-02-22T03:38:36.163Z,89.80
2019-02-22T03:41:05.050Z,89.80
2019-02-22T03:43:33.886Z,89.80
2019-02-22T03:46:03.075Z,89.70
2019-02-22T03:48:32.264Z,89.80
2019-02-22T03:51:01.445Z,89.50
2019-02-22T03:53:33.018Z,89.50
2019-02-22T03:56:01.258Z,89.50
2019-02-22T03:58:29.442Z,89.50
2019-02-22T04:00:57.628Z,89.30
2019-02-22T04:03:26.407Z,89.40
2019-02-22T04:05:54.977Z,89.60
2019-02-22T04:08:23.454Z,89.40
2019-02-22T04:10:51.937Z,89.40
2019-02-22T04:13:20.129Z,89.30
2019-02-22T04:15:48.308Z,89.40
2019-02-22T04:18:16.902Z,89.30
2019-02-22T04:20:46.087Z,89.40
2019-02-22T04:23:14.543Z,89.40
2019-02-22T04:25:42.730Z,89.40
2019-02-22T04:28:11.141Z,89.60
2019-02-22T04:30:39.285Z,89.60
2019-02-22T04:33:08.487Z,89.60
2019-02-22T04:35:38.939Z,89.60
2019-02-22T04:38:07.081Z,89.60
2019-02-22T04:40:35.271Z,89.70
2019-02-22T04:43:03.446Z,89.90
2019-02-22T04:45:32.711Z,89.70
2019-02-22T04:48:00.930Z,89.80
2019-02-22T04:50:29.059Z,89.70
2019-02-22T04:52:57.259Z,89.60
2019-02-22T04:55:25.716Z,89.60
2019-02-22T04:57:54.193Z,89.40
2019-02-22T05:00:22.386Z,89.50
2019-02-22T05:02:50.553Z,89.30
2019-02-22T05:05:18.734Z,89.40
2019-02-22T05:07:46.899Z,89.30
2019-02-22T05:10:15.398Z,89.20
2019-02-22T05:12:43.572Z,89.20
2019-02-22T05:15:13.095Z,89.20
2019-02-22T05:17:40.330Z,89.20
2019-02-22T05:20:08.487Z,89.20
2019-02-22T05:22:37.683Z,89.20
2019-02-22T05:25:06.550Z,89.20
2019-02-22T05:27:34.752Z,89.30
2019-02-22T05:30:03.241Z,89.50
2019-02-22T05:32:31.425Z,89.70
2019-02-22T05:34:59.949Z,89.70
2019-02-22T05:37:28.166Z,89.70
2019-02-22T05:39:56.337Z,89.70
2019-02-22T05:42:24.541Z,89.80
2019-02-22T05:44:52.688Z,90.00
2019-02-22T05:47:20.858Z,90.10
2019-02-22T05:49:49.036Z,90.10
2019-02-22T05:52:17.228Z,90.10
2019-02-22T05:54:45.383Z,90.00
2019-02-22T05:57:14.464Z,90.20
2019-02-22T05:59:42.454Z,90.10
2019-02-22T06:02:10.942Z,90.20
2019-02-22T06:04:39.093Z,90.10
2019-02-22T06:07:07.273Z,90.30
2019-02-22T06:09:35.842Z,90.10
2019-02-22T06:12:04.324Z,90.20
2019-02-22T06:14:32.516Z,90.20
2019-02-22T06:17:00.684Z,90.20
2019-02-22T06:19:28.949Z,90.30
2019-02-22T06:21:57.158Z,90.30
2019-02-22T06:24:25.306Z,90.30
2019-02-22T06:26:53.468Z,90.70
2019-02-22T06:29:21.666Z,90.30
2019-02-22T06:31:49.812Z,90.20
2019-02-22T06:34:18.016Z,90.30
2019-02-22T06:36:46.162Z,90.20
2019-02-22T06:39:14.348Z,89.90
2019-02-22T06:41:42.776Z,90.10
2019-02-22T06:44:12.056Z,90.10
2019-02-22T06:46:39.567Z,90.10
2019-02-22T06:49:07.753Z,90.10
2019-02-22T06:51:35.918Z,90.20
2019-02-22T06:54:04.105Z,90.20
2019-02-22T06:56:32.260Z,90.20
2019-02-22T06:59:00.870Z,90.30
2019-02-22T07:01:29.963Z,90.30
2019-02-22T07:03:58.200Z,90.20
2019-02-22T07:06:26.372Z,90.20
2019-02-22T07:08:54.476Z,90.20
2019-02-22T07:11:28.525Z,90.20
2019-02-22T07:13:56.760Z,90.20
2019-02-22T07:16:24.938Z,90.20
2019-02-22T07:18:53.107Z,90.20
2019-02-22T07:21:21.278Z,90.40
2019-02-22T07:23:49.457Z,90.30
2019-02-22T07:26:20.126Z,90.30
2019-02-22T07:28:48.826Z,90.00
2019-02-22T07:31:17.056Z,90.10
2019-02-22T07:33:45.219Z,90.10
2019-02-22T07:36:13.787Z,90.10
2019-02-22T07:38:41.965Z,89.90
2019-02-22T07:41:10.170Z,89.80
2019-02-22T07:43:38.336Z,89.80
2019-02-22T07:46:06.502Z,89.70
2019-02-22T07:48:34.664Z,89.50
2019-02-22T07:51:02.830Z,89.10
2019-02-22T07:53:31.468Z,88.80
2019-02-22T07:55:59.702Z,88.40
2019-02-22T07:58:27.894Z,88.10
2019-02-22T08:00:59.723Z,88.00
2019-02-22T08:03:27.914Z,87.80
2019-02-22T08:05:56.086Z,87.80
2019-02-22T08:08:24.306Z,87.90
2019-02-22T08:10:52.742Z,87.70
2019-02-22T08:13:20.905Z,87.40
2019-02-22T08:15:49.094Z,87.10
2019-02-22T08:18:17.640Z,87.00
2019-02-22T08:20:46.104Z,86.10
2019-02-22T08:23:14.801Z,86.50
2019-02-22T08:25:42.999Z,86.70
2019-02-22T08:28:11.195Z,86.70
2019-02-22T08:30:39.341Z,85.90
2019-02-22T08:33:07.509Z,87.40
2019-02-22T08:35:35.709Z,86.70
2019-02-22T08:38:03.877Z,84.10
2019-02-22T08:40:32.149Z,84.60
2019-02-22T08:43:03.825Z,84.80
2019-02-22T08:45:32.288Z,84.40
2019-02-22T08:48:00.828Z,84.70
2019-02-22T08:50:30.054Z,84.60
2019-02-22T08:53:03.054Z,84.20
2019-02-22T08:55:31.212Z,84.60
2019-02-22T08:57:59.409Z,83.50
2019-02-22T09:00:27.592Z,83.70
2019-02-22T09:02:56.037Z,83.90
2019-02-22T09:05:24.221Z,84.20
2019-02-22T09:07:52.428Z,83.70
2019-02-22T09:10:20.587Z,83.90
2019-02-22T09:12:48.718Z,82.80
2019-02-22T09:15:16.903Z,83.40
2019-02-22T09:17:45.111Z,82.70
2019-02-22T09:20:13.265Z,82.60
2019-02-22T09:22:42.457Z,82.40
2019-02-22T09:25:11.652Z,81.70
2019-02-22T09:27:39.839Z,81.80
2019-02-22T09:30:09.024Z,81.70
2019-02-22T09:32:37.201Z,80.80
2019-02-22T09:35:06.493Z,80.70
2019-02-22T09:37:54.089Z,80.50
2019-02-22T09:40:22.301Z,79.60
2019-02-22T09:42:50.552Z,78.50
2019-02-22T09:45:19.115Z,78.90
2019-02-22T09:47:48.105Z,78.30
2019-02-22T09:50:17.108Z,78.50
2019-02-22T09:52:45.207Z,77.70
2019-02-22T09:55:13.416Z,78.40
2019-02-22T09:57:41.555Z,77.80
2019-02-22T10:00:11.269Z,76.20
2019-02-22T10:02:40.261Z,76.20
2019-02-22T10:05:09.155Z,76.70
2019-02-22T10:07:37.330Z,76.80
2019-02-22T10:10:06.437Z,76.80
2019-02-22T10:12:35.190Z,77.00
2019-02-22T10:15:04.162Z,76.90
2019-02-22T10:17:34.369Z,77.40
2019-02-22T10:20:02.512Z,76.80
2019-02-22T10:22:30.666Z,76.90
2019-02-22T10:24:58.844Z,76.00
2019-02-22T10:27:26.997Z,76.70
2019-02-22T10:29:55.195Z,76.60
2019-02-22T10:32:23.362Z,76.60
2019-02-22T10:34:51.593Z,76.60
2019-02-22T10:37:19.816Z,75.60
2019-02-22T10:39:47.981Z,75.80
2019-02-22T10:42:17.385Z,76.20
2019-02-22T10:44:45.589Z,75.60
2019-02-22T10:47:13.737Z,75.00
2019-02-22T10:49:42.503Z,75.10
2019-02-22T10:52:10.712Z,74.80
2019-02-22T10:54:38.863Z,74.90
2019-02-22T10:57:08.062Z,74.40
2019-02-22T10:59:40.936Z,73.80
2019-02-22T11:02:09.132Z,74.30
2019-02-22T11:04:37.347Z,74.60
2019-02-22T11:07:05.863Z,74.80
2019-02-22T11:09:34.048Z,75.50
2019-02-22T11:12:02.293Z,76.00
2019-02-22T11:14:34.889Z,75.80
2019-02-22T11:17:03.493Z,76.50
2019-02-22T11:19:31.698Z,76.60
2019-02-22T11:21:59.865Z,76.70
2019-02-22T11:24:28.062Z,77.10
2019-02-22T11:26:56.603Z,77.10
2019-02-22T11:29:24.932Z,77.40
2019-02-22T11:31:54.081Z,77.10
2019-02-22T11:34:22.268Z,77.00
2019-02-22T11:36:50.429Z,76.60
2019-02-22T11:39:18.655Z,77.40
2019-02-22T11:41:47.117Z,76.70
2019-02-22T11:44:15.055Z,75.50
2019-02-22T11:46:43.220Z,75.80
2019-02-22T11:49:13.713Z,75.60
2019-02-22T11:51:42.988Z,75.30
2019-02-22T11:54:11.405Z,74.00
2019-02-22T11:56:40.710Z,74.00
2019-02-22T11:59:10.840Z,72.80
2019-02-22T12:01:40.037Z,73.10
2019-02-22T12:04:12.334Z,72.10
2019-02-22T12:06:42.960Z,72.50
2019-02-22T12:09:12.145Z,72.40
2019-02-22T12:11:48.564Z,72.40
2019-02-22T12:14:18.105Z,70.80
2019-02-22T12:16:46.676Z,70.90
2019-02-22T12:19:20.989Z,70.10
2019-02-22T12:21:49.574Z,71.30
2019-02-22T12:24:18.709Z,70.80
2019-02-22T12:26:48.055Z,70.60
2019-02-22T12:29:16.230Z,71.20
2019-02-22T12:31:45.028Z,71.20
2019-02-22T12:34:14.240Z,71.80
2019-02-22T12:36:42.431Z,72.00
2019-02-22T12:39:10.895Z,71.80
2019-02-22T12:41:39.794Z,71.60
2019-02-22T12:44:08.038Z,71.70
2019-02-22T12:46:36.258Z,71.80
2019-02-22T12:49:07.491Z,72.10
2019-02-22T12:51:35.979Z,72.00
2019-02-22T12:54:04.552Z,71.80
2019-02-22T12:59:02.957Z,72.20
2019-02-22T13:01:32.142Z,71.70
2019-02-22T13:04:02.354Z,72.50
2019-02-22T13:06:30.544Z,72.80
2019-02-22T13:08:58.723Z,73.00
2019-02-22T13:11:27.152Z,72.30
2019-02-22T13:13:55.375Z,72.70
2019-02-22T13:16:23.930Z,72.70
2019-02-22T13:18:52.180Z,73.10
2019-02-22T13:21:21.323Z,73.40
2019-02-22T13:23:49.893Z,73.60
2019-02-22T13:26:18.397Z,73.10
2019-02-22T13:28:46.591Z,73.90
2019-02-22T13:31:15.463Z,73.00
2019-02-22T13:33:43.615Z,73.30
2019-02-22T13:36:12.067Z,73.40
2019-02-22T13:38:41.211Z,73.90
2019-02-22T13:41:10.067Z,73.40
2019-02-22T13:43:38.280Z,70.90
2019-02-22T13:46:06.798Z,69.70
2019-02-22T13:48:35.940Z,67.40
2019-02-22T13:51:04.122Z,67.00
2019-02-22T13:53:32.980Z,66.90
2019-02-22T13:56:01.178Z,66.20
2019-02-22T13:58:30.367Z,66.10
2019-02-22T14:00:58.556Z,66.00
2019-02-22T14:03:27.393Z,65.20
2019-02-22T14:05:55.598Z,65.70
2019-02-22T14:08:24.284Z,65.20
2019-02-22T14:10:52.478Z,65.40
2019-02-22T14:13:20.799Z,64.40
2019-02-22T14:15:49.297Z,65.00
2019-02-22T14:18:17.520Z,64.70
2019-02-22T14:20:45.699Z,64.90
2019-02-22T14:23:14.555Z,65.40
2019-02-22T14:25:42.828Z,65.30
2019-02-22T14:28:12.167Z,65.20
2019-02-22T14:30:40.358Z,65.50
2019-02-22T14:33:08.600Z,65.40
2019-02-22T14:35:38.086Z,65.10
2019-02-22T14:38:07.293Z,65.60
2019-02-22T14:40:35.627Z,65.70
2019-02-22T14:43:03.856Z,65.70
2019-02-22T14:45:33.015Z,65.00
2019-02-22T14:48:01.496Z,65.60
2019-02-22T14:50:29.655Z,65.80
2019-02-22T14:52:57.867Z,65.70
2019-02-22T14:55:27.151Z,66.20
2019-02-22T14:57:55.237Z,66.10
2019-02-22T15:00:23.779Z,66.00
2019-02-22T15:02:55.070Z,65.40
2019-02-22T15:05:23.271Z,65.20
2019-02-22T15:07:51.701Z,65.30
2019-02-22T15:10:19.904Z,65.10
2019-02-22T15:12:49.103Z,65.40
2019-02-22T15:15:17.264Z,64.10
2019-02-22T15:17:56.737Z,63.90
2019-02-22T15:20:25.347Z,64.10
2019-02-22T15:22:53.555Z,65.10
2019-02-22T15:25:22.104Z,65.20
2019-02-22T15:27:52.266Z,65.50
2019-02-22T15:30:21.351Z,65.50
2019-02-22T15:32:49.922Z,65.20
2019-02-22T15:35:18.125Z,64.60
2019-02-22T15:37:48.724Z,65.60
2019-02-22T15:40:18.209Z,65.20
2019-02-22T15:42:46.442Z,65.20
2019-02-22T15:45:15.643Z,65.10
2019-02-22T15:47:43.805Z,65.50
2019-02-22T15:50:13.569Z,65.90
2019-02-22T15:52:41.777Z,66.50
2019-02-22T15:55:10.226Z,67.00
2019-02-22T15:57:38.354Z,66.80
2019-02-22T16:00:12.608Z,67.30
2019-02-22T16:02:41.270Z,67.30
2019-02-22T16:05:16.140Z,66.70
2019-02-22T16:07:45.095Z,67.20
2019-02-22T16:10:13.032Z,67.50
2019-02-22T16:12:43.877Z,67.60
2019-02-22T16:15:12.073Z,68.50
2019-02-22T16:17:40.988Z,70.50
2019-02-22T16:20:09.193Z,71.20
2019-02-22T16:22:38.594Z,71.10
2019-02-22T16:25:19.683Z,71.50
2019-02-22T16:27:39.988Z,71.90
2019-02-22T16:30:13.161Z,72.10
2019-02-22T16:32:41.763Z,72.50
2019-02-22T16:35:11.915Z,73.10
2019-02-22T16:37:42.445Z,73.00
2019-02-22T16:40:12.826Z,73.20
2019-02-22T16:42:41.120Z,73.20
2019-02-22T16:45:16.114Z,73.20
2019-02-22T16:47:43.347Z,73.40
2019-02-22T16:50:11.965Z,73.00
2019-02-22T16:52:40.142Z,73.00
2019-02-22T16:55:10.853Z,73.00
2019-02-22T16:57:41.344Z,73.00
2019-02-22T17:00:11.130Z,73.50
2019-02-22T17:02:41.380Z,73.50
2019-02-22T17:05:08.670Z,73.60
2019-02-22T17:07:36.942Z,73.80
2019-02-22T17:10:14.241Z,73.30
2019-02-22T17:12:43.381Z,73.80
2019-02-22T17:15:11.548Z,74.40
2019-02-22T17:17:39.686Z,74.50
2019-02-22T17:20:08.782Z,74.90
2019-02-22T17:22:37.965Z,75.00
2019-02-22T17:25:08.695Z,74.90
2019-02-22T17:27:37.593Z,75.00
2019-02-22T17:30:06.799Z,75.40
2019-02-22T17:32:35.356Z,75.80
2019-02-22T17:35:03.658Z,76.30
2019-02-22T17:37:31.822Z,76.40
2019-02-22T17:39:59.999Z,76.70
2019-02-22T17:42:29.568Z,76.80
2019-02-22T17:44:59.202Z,77.10
2019-02-22T17:47:27.890Z,77.20
2019-02-22T17:49:56.091Z,77.50
2019-02-22T17:52:24.241Z,77.60
2019-02-22T17:54:52.430Z,78.00
2019-02-22T17:57:20.634Z,78.20
2019-02-22T17:59:49.101Z,78.60
2019-02-22T18:02:17.633Z,78.80
2019-02-22T18:04:45.825Z,79.10
2019-02-22T18:07:14.292Z,78.70
2019-02-22T18:09:42.429Z,79.00
2019-02-22T18:12:10.654Z,79.00
2019-02-22T18:14:39.204Z,79.10
2019-02-22T18:17:08.740Z,79.20
2019-02-22T18:19:35.832Z,79.10
2019-02-22T18:22:08.073Z,79.20
2019-02-22T18:24:36.627Z,79.70
2019-02-22T18:27:05.101Z,79.80
2019-02-22T18:29:35.670Z,79.80
2019-02-22T18:32:02.099Z,80.00
2019-02-22T18:34:30.631Z,80.00
2019-02-22T18:36:58.921Z,79.90
2019-02-22T18:39:27.426Z,79.80
2019-02-22T18:41:55.605Z,79.50
2019-02-22T18:44:24.762Z,79.50
2019-02-22T18:46:52.993Z,79.90
2019-02-22T18:49:21.138Z,79.80
2019-02-22T18:51:49.325Z,79.70
2019-02-22T18:54:17.490Z,79.90
2019-02-22T18:56:45.650Z,80.00
2019-02-22T18:59:14.231Z,80.50
2019-02-22T19:01:43.478Z,80.80
2019-02-22T19:04:11.902Z,81.00
2019-02-22T19:06:40.460Z,81.90
2019-02-22T19:09:08.677Z,81.00
2019-02-22T19:11:36.853Z,81.00
2019-02-22T19:14:06.422Z,81.00
2019-02-22T19:16:34.640Z,81.20
2019-02-22T19:19:02.799Z,81.30
2019-02-22T19:21:30.993Z,81.40
2019-02-22T19:23:59.781Z,81.20
2019-02-22T19:26:27.953Z,81.40
2019-02-22T19:28:56.110Z,81.20
2019-02-22T19:31:25.037Z,81.10
2019-02-22T19:33:53.564Z,81.20
2019-02-22T19:36:21.758Z,81.30
2019-02-22T19:38:49.942Z,81.80
2019-02-22T19:41:18.430Z,82.10
2019-02-22T19:43:47.088Z,82.20
2019-02-22T19:46:15.063Z,81.90
2019-02-22T19:48:44.269Z,82.10
2019-02-22T19:51:12.417Z,82.50
2019-02-22T19:53:40.684Z,82.40
2019-02-22T19:56:08.766Z,83.10
2019-02-22T19:58:36.973Z,82.10
2019-02-22T20:01:05.419Z,82.40
2019-02-22T20:03:33.628Z,82.40
2019-02-22T20:06:01.774Z,82.60
2019-02-22T20:08:29.964Z,82.50
2019-02-22T20:10:59.430Z,82.40
2019-02-22T20:13:27.970Z,81.70
2019-02-22T20:15:56.109Z,81.50
2019-02-22T20:18:24.622Z,81.40
2019-02-22T20:20:53.139Z,81.40
2019-02-22T20:23:21.363Z,81.20
2019-02-22T20:25:49.536Z,81.10
2019-02-22T20:28:18.074Z,81.30
2019-02-22T20:30:46.290Z,81.30
2019-02-22T20:33:14.447Z,81.50
2019-02-22T20:35:42.917Z,81.50
2019-02-22T20:38:11.090Z,81.50
2019-02-22T20:40:39.572Z,81.40
2019-02-22T20:43:09.727Z,81.40
2019-02-22T20:45:37.894Z,81.30
2019-02-22T20:48:06.062Z,81.40
2019-02-22T20:50:34.688Z,81.20
2019-02-22T20:53:02.885Z,81.00
2019-02-22T20:55:31.434Z,81.10
2019-02-22T20:57:59.587Z,81.00
2019-02-22T21:00:27.753Z,81.20
2019-02-22T21:02:57.969Z,81.20
2019-02-22T21:05:26.250Z,81.70
2019-02-22T21:07:54.423Z,81.80
2019-02-22T21:10:22.646Z,82.10
2019-02-22T21:12:50.758Z,82.30
2019-02-22T21:15:20.268Z,82.30
2019-02-22T21:17:57.431Z,82.30
2019-02-22T21:20:25.732Z,82.80
2019-02-22T21:22:53.890Z,83.20
2019-02-22T21:25:23.096Z,83.40
2019-02-22T21:27:51.272Z,83.60
2019-02-22T21:30:19.458Z,83.70
2019-02-22T21:32:48.352Z,83.40
2019-02-22T21:35:16.397Z,83.10
2019-02-22T21:37:44.572Z,83.20
2019-02-22T21:40:13.039Z,83.40
2019-02-22T21:42:41.227Z,84.00
2019-02-22T21:45:09.912Z,84.60
2019-02-22T21:47:39.122Z,85.00
2019-02-22T21:50:09.330Z,85.00
2019-02-22T21:52:37.514Z,84.30
2019-02-22T21:55:06.737Z,84.10
2019-02-22T21:57:35.509Z,84.80
2019-02-22T22:00:03.836Z,84.40
2019-02-22T22:02:32.054Z,84.30
2019-02-22T22:05:03.363Z,84.30
2019-02-22T22:07:33.754Z,84.20
2019-02-22T22:10:02.187Z,84.10
2019-02-22T22:12:30.828Z,84.40
2019-02-22T22:14:59.171Z,85.10
2019-02-22T22:17:27.839Z,85.20
2019-02-22T22:19:56.031Z,85.30
2019-02-22T22:22:24.481Z,86.20
2019-02-22T22:24:52.678Z,86.60
2019-02-22T22:27:24.468Z,86.90
2019-02-22T22:29:52.844Z,87.00
2019-02-22T22:32:21.279Z,87.40
2019-02-22T22:34:49.479Z,87.30
2019-02-22T22:37:20.891Z,87.70
2019-02-22T22:39:49.081Z,88.00
2019-02-22T22:42:17.293Z,88.60
2019-02-22T22:44:45.498Z,89.20
2019-02-22T22:47:13.699Z,89.10
2019-02-22T22:49:41.879Z,89.10
2019-02-22T22:52:10.061Z,89.30
2019-02-22T22:54:38.228Z,89.80
2019-02-22T22:57:06.877Z,89.90
2019-02-22T22:59:35.177Z,89.80
2019-02-22T23:02:03.378Z,90.00
2019-02-22T23:04:33.646Z,90.00
2019-02-22T23:07:05.584Z,90.00
2019-02-22T23:09:33.764Z,90.10
2019-02-22T23:12:02.416Z,90.20
2019-02-22T23:14:30.601Z,90.00
2019-02-22T23:16:59.532Z,89.60
2019-02-22T23:19:31.438Z,89.20
2019-02-22T23:21:59.635Z,89.40
2019-02-22T23:24:31.429Z,89.70
2019-02-22T23:27:00.230Z,90.00
2019-02-22T23:29:28.816Z,89.60
2019-02-22T23:32:15.913Z,89.40
2019-02-22T23:34:44.137Z,89.50
2019-02-22T23:37:16.014Z,89.80
2019-02-22T23:39:44.247Z,90.10
2019-02-22T23:42:15.396Z,90.00
2019-02-22T23:44:43.671Z,89.70
2019-02-22T23:47:11.860Z,89.60
